No particular awareness of the weather is required.    There are no Weather-warnings


Meteo18 Weather Cam more information Meteo18 Weather Cam


Thunder radar more information blitzortung!


Rain radar more information rain snow radar


Visit our other weather sites:

Template documentation
and downloads

And another site



Weather Underground History page Text

Daily Summary for September 10, 2016 Units:  Metric    English   Both
« Previous Day
Next Day »
Daily Weekly Monthly Yearly Custom
  High: Low: Average:
Temperature: 27.2 °C 10.6 °C 19.7 °C
Dew Point: 11.9 °C 8.7 °C 10.4 °C
Humidity: 89 % 36 % 58 %
Wind Speed: 16.1 km/h 0.0 km/h 2.5 km/h
Wind Gust: 22.5 km/h - -
Wind:- - WSW
Pressure: 1017.2 hPa 1014.8 hPa -
Precipitation: 0.0 mm    
Historical Graphs
 
 
Tabular Data for September 10, 2016
Time Temperature Dew Point Pressure Wind Wind Speed Wind Gust Humidity Rainfall Rate (Hourly)
00:02 17.4 °C 11.2 °C 1016.8 hPa Calm     67 % 0.0 mm
00:07 17.4 °C 11.0 °C 1016.8 hPa Calm     66 % 0.0 mm
00:12 17.7 °C 11.0 °C 1016.8 hPa Calm     65 % 0.0 mm
00:17 17.8 °C 10.9 °C 1016.8 hPa Calm     64 % 0.0 mm
00:22 17.8 °C 10.7 °C 1016.8 hPa Calm     63 % 0.0 mm
00:27 17.6 °C 10.5 °C 1016.8 hPa Calm     63 % 0.0 mm
00:32 17.3 °C 10.7 °C 1016.8 hPa Calm     65 % 0.0 mm
00:42 17.5 °C 10.6 °C 1016.8 hPa Calm     64 % 0.0 mm
00:47 17.9 °C 10.5 °C 1016.8 hPa Calm     62 % 0.0 mm
00:52 18.0 °C 10.6 °C 1016.8 hPa Calm     62 % 0.0 mm
00:57 17.8 °C 10.4 °C 1016.8 hPa Calm     62 % 0.0 mm
01:02 17.3 °C 10.7 °C 1016.8 hPa Calm     65 % 0.0 mm
01:07 16.9 °C 10.7 °C 1016.8 hPa Calm     67 % 0.0 mm
01:12 16.8 °C 10.6 °C 1016.8 hPa Calm     67 % 0.0 mm
01:17 16.7 °C 10.5 °C 1016.8 hPa Calm     67 % 0.0 mm
01:22 16.3 °C 10.6 °C 1016.8 hPa Calm     69 % 0.0 mm
01:27 16.3 °C 10.6 °C 1016.8 hPa Calm     69 % 0.0 mm
01:32 16.1 °C 10.4 °C 1016.5 hPa Calm     69 % 0.0 mm
01:37 15.8 °C 10.1 °C 1016.8 hPa Calm     69 % 0.0 mm
01:42 15.7 °C 10.5 °C 1016.8 hPa Calm     71 % 0.0 mm
01:52 15.4 °C 10.4 °C 1016.8 hPa Calm     72 % 0.0 mm
01:57 15.4 °C 10.4 °C 1016.8 hPa Calm     72 % 0.0 mm
02:02 15.3 °C 10.3 °C 1016.8 hPa Calm     72 % 0.0 mm
02:07 15.4 °C 10.4 °C 1016.8 hPa Calm     72 % 0.0 mm
02:12 15.4 °C 10.2 °C 1016.5 hPa Calm     71 % 0.0 mm
02:17 15.7 °C 10.2 °C 1016.5 hPa Calm     70 % 0.0 mm
02:22 15.8 °C 10.1 °C 1016.5 hPa Calm     69 % 0.0 mm
02:27 15.8 °C 10.1 °C 1016.5 hPa Calm     69 % 0.0 mm
02:32 15.8 °C 10.1 °C 1016.5 hPa Calm     69 % 0.0 mm
02:37 15.7 °C 10.0 °C 1016.5 hPa Calm     69 % 0.0 mm
02:42 15.6 °C 10.1 °C 1016.8 hPa Calm     70 % 0.0 mm
02:47 15.5 °C 10.1 °C 1016.8 hPa Calm     70 % 0.0 mm
02:52 15.3 °C 10.1 °C 1016.8 hPa Calm     71 % 0.0 mm
02:57 15.0 °C 10.2 °C 1016.5 hPa Calm     73 % 0.0 mm
03:02 14.7 °C 10.1 °C 1016.5 hPa Calm     74 % 0.0 mm
03:07 14.5 °C 9.9 °C 1016.8 hPa Calm     74 % 0.0 mm
03:12 14.4 °C 10.0 °C 1016.8 hPa Calm     75 % 0.0 mm
03:17 14.4 °C 10.0 °C 1016.8 hPa Calm     75 % 0.0 mm
03:22 14.3 °C 9.9 °C 1016.8 hPa Calm     75 % 0.0 mm
03:27 14.2 °C 10.0 °C 1016.8 hPa Calm     76 % 0.0 mm
03:32 14.1 °C 9.9 °C 1016.8 hPa Calm     76 % 0.0 mm
03:37 14.2 °C 10.2 °C 1016.8 hPa Calm     77 % 0.0 mm
03:42 14.1 °C 9.9 °C 1016.8 hPa Calm     76 % 0.0 mm
03:47 13.9 °C 9.9 °C 1016.8 hPa Calm     77 % 0.0 mm
03:52 13.9 °C 10.1 °C 1016.8 hPa Calm     78 % 0.0 mm
03:57 14.0 °C 10.0 °C 1016.8 hPa Calm     77 % 0.0 mm
04:02 13.8 °C 9.8 °C 1016.8 hPa Calm     77 % 0.0 mm
04:07 13.5 °C 9.9 °C 1016.8 hPa Calm     79 % 0.0 mm
04:12 13.3 °C 9.9 °C 1016.8 hPa Calm     80 % 0.0 mm
04:17 13.3 °C 9.9 °C 1016.8 hPa Calm     80 % 0.0 mm
04:22 13.4 °C 10.0 °C 1016.8 hPa Calm     80 % 0.0 mm
04:32 13.3 °C 9.9 °C 1016.5 hPa Calm     80 % 0.0 mm
04:37 13.3 °C 9.9 °C 1016.5 hPa Calm     80 % 0.0 mm
04:42 13.3 °C 9.9 °C 1016.5 hPa Calm     80 % 0.0 mm
04:47 13.2 °C 9.8 °C 1016.5 hPa Calm     80 % 0.0 mm
04:52 13.2 °C 9.8 °C 1016.5 hPa Calm     80 % 0.0 mm
04:57 13.1 °C 9.9 °C 1016.5 hPa Calm     81 % 0.0 mm
05:02 12.9 °C 9.7 °C 1016.5 hPa Calm     81 % 0.0 mm
05:07 12.9 °C 9.7 °C 1016.5 hPa Calm     81 % 0.0 mm
05:12 12.9 °C 9.7 °C 1016.5 hPa Calm     81 % 0.0 mm
05:17 12.8 °C 9.6 °C 1016.5 hPa Calm     81 % 0.0 mm
05:22 12.7 °C 9.5 °C 1016.5 hPa Calm     81 % 0.0 mm
05:27 12.7 °C 9.9 °C 1016.5 hPa Calm     83 % 0.0 mm
05:32 12.8 °C 9.8 °C 1016.5 hPa Calm     82 % 0.0 mm
05:37 12.7 °C 9.7 °C 1016.5 hPa Calm     82 % 0.0 mm
05:42 12.8 °C 9.8 °C 1016.5 hPa Calm     82 % 0.0 mm
05:47 13.2 °C 9.6 °C 1016.5 hPa Calm     79 % 0.0 mm
05:52 12.8 °C 9.4 °C 1016.5 hPa Calm     80 % 0.0 mm
05:57 12.6 °C 9.4 °C 1016.5 hPa Calm     81 % 0.0 mm
06:02 12.4 °C 9.4 °C 1016.5 hPa Calm     82 % 0.0 mm
06:07 12.3 °C 9.3 °C 1016.5 hPa Calm     82 % 0.0 mm
06:12 12.1 °C 9.1 °C 1016.5 hPa Calm     82 % 0.0 mm
06:17 11.9 °C 9.1 °C 1016.5 hPa Calm     83 % 0.0 mm
06:22 11.9 °C 9.1 °C 1016.5 hPa Calm     83 % 0.0 mm
06:32 11.6 °C 9.0 °C 1016.5 hPa Calm     84 % 0.0 mm
06:37 11.6 °C 9.2 °C 1016.5 hPa Calm     85 % 0.0 mm
06:42 11.6 °C 9.3 °C 1016.5 hPa Calm     86 % 0.0 mm
06:47 11.5 °C 9.2 °C 1016.8 hPa Calm     86 % 0.0 mm
06:52 11.3 °C 9.0 °C 1016.8 hPa Calm     86 % 0.0 mm
07:02 11.1 °C 9.0 °C 1016.8 hPa Calm     87 % 0.0 mm
07:07 10.8 °C 8.7 °C 1016.8 hPa Calm     87 % 0.0 mm
07:12 10.7 °C 8.8 °C 1016.8 hPa Calm     88 % 0.0 mm
07:17 10.6 °C 8.7 °C 1016.8 hPa Calm     88 % 0.0 mm
07:22 10.6 °C 8.9 °C 1016.8 hPa Calm     89 % 0.0 mm
07:32 10.7 °C 8.8 °C 1016.8 hPa Calm     88 % 0.0 mm
07:37 10.7 °C 8.8 °C 1016.8 hPa Calm     88 % 0.0 mm
07:42 10.8 °C 8.9 °C 1017.2 hPa Calm     88 % 0.0 mm
07:47 10.9 °C 8.8 °C 1017.2 hPa Calm     87 % 0.0 mm
07:52 11.1 °C 9.0 °C 1017.2 hPa Calm     87 % 0.0 mm
07:57 11.4 °C 9.1 °C 1017.2 hPa Calm     86 % 0.0 mm
08:02 11.7 °C 9.1 °C 1017.2 hPa Calm     84 % 0.0 mm
08:12 11.7 °C 9.1 °C 1017.2 hPa Calm     84 % 0.0 mm
08:17 12.0 °C 9.2 °C 1017.2 hPa Calm     83 % 0.0 mm
08:22 12.3 °C 9.5 °C 1017.2 hPa Calm   3.2 km/h 83 % 0.0 mm
08:27 12.6 °C 9.6 °C 1017.2 hPa Calm   3.2 km/h 82 % 0.0 mm
08:32 13.0 °C 9.6 °C 1017.2 hPa Calm   3.2 km/h 80 % 0.0 mm
08:37 13.8 °C 10.4 °C 1017.2 hPa Calm   1.6 km/h 80 % 0.0 mm
08:42 14.9 °C 10.5 °C 1017.2 hPa Calm   1.6 km/h 75 % 0.0 mm
08:47 15.9 °C 10.6 °C 1017.2 hPa Calm     71 % 0.0 mm
08:52 16.6 °C 10.7 °C 1017.2 hPa Calm     68 % 0.0 mm
08:57 16.4 °C 10.3 °C 1017.2 hPa Calm   1.6 km/h 67 % 0.0 mm
09:02 15.9 °C 10.2 °C 1017.2 hPa Calm   1.6 km/h 69 % 0.0 mm
09:07 15.8 °C 10.6 °C 1017.2 hPa Calm   1.6 km/h 71 % 0.0 mm
09:12 16.4 °C 10.7 °C 1017.2 hPa Calm     69 % 0.0 mm
09:17 16.8 °C 10.9 °C 1017.2 hPa Calm     68 % 0.0 mm
09:22 17.4 °C 11.2 °C 1017.2 hPa Calm     67 % 0.0 mm
09:27 18.3 °C 11.1 °C 1017.2 hPa Calm     63 % 0.0 mm
09:32 18.7 °C 11.3 °C 1017.2 hPa Calm     62 % 0.0 mm
09:37 19.2 °C 11.0 °C 1017.2 hPa Calm     59 % 0.0 mm
09:42 19.1 °C 10.9 °C 1017.2 hPa Calm     59 % 0.0 mm
09:47 19.6 °C 11.4 °C 1017.2 hPa Calm     59 % 0.0 mm
09:52 19.8 °C 11.3 °C 1017.2 hPa Calm     58 % 0.0 mm
09:57 20.1 °C 11.0 °C 1017.2 hPa Calm     56 % 0.0 mm
10:02 19.9 °C 11.1 °C 1017.2 hPa Calm     57 % 0.0 mm
10:12 20.2 °C 11.1 °C 1017.2 hPa Calm   1.6 km/h 56 % 0.0 mm
10:17 20.1 °C 11.0 °C 1017.2 hPa SW 3.2 km/h 3.2 km/h 56 % 0.0 mm
10:22 19.9 °C 11.1 °C 1017.2 hPa Calm   4.8 km/h 57 % 0.0 mm
10:27 20.3 °C 11.2 °C 1017.2 hPa Calm   4.8 km/h 56 % 0.0 mm
10:32 20.8 °C 11.4 °C 1017.2 hPa Calm   4.8 km/h 55 % 0.0 mm
10:37 20.9 °C 11.5 °C 1017.2 hPa Calm   1.6 km/h 55 % 0.0 mm
10:42 21.0 °C 11.3 °C 1017.2 hPa Calm   3.2 km/h 54 % 0.0 mm
10:47 21.5 °C 11.8 °C 1017.2 hPa Calm   3.2 km/h 54 % 0.0 mm
10:52 21.7 °C 11.7 °C 1017.2 hPa Calm   3.2 km/h 53 % 0.0 mm
10:57 21.8 °C 11.5 °C 1017.2 hPa Calm   3.2 km/h 52 % 0.0 mm
11:02 22.4 °C 11.8 °C 1017.2 hPa Calm   3.2 km/h 51 % 0.0 mm
11:12 22.3 °C 11.7 °C 1017.2 hPa Calm   4.8 km/h 51 % 0.0 mm
11:17 22.9 °C 11.6 °C 1017.2 hPa SSW 4.8 km/h 4.8 km/h 49 % 0.0 mm
11:22 22.9 °C 11.6 °C 1017.2 hPa Calm   4.8 km/h 49 % 0.0 mm
11:27 23.2 °C 11.6 °C 1017.2 hPa Calm   6.4 km/h 48 % 0.0 mm
11:32 23.4 °C 11.4 °C 1017.2 hPa SE 1.6 km/h 6.4 km/h 47 % 0.0 mm
11:37 23.5 °C 11.5 °C 1017.2 hPa South 3.2 km/h 4.8 km/h 47 % 0.0 mm
11:42 23.4 °C 11.4 °C 1017.2 hPa SSW 4.8 km/h 9.7 km/h 47 % 0.0 mm
11:47 23.3 °C 11.4 °C 1017.2 hPa SW 3.2 km/h 9.7 km/h 47 % 0.0 mm
11:52 23.3 °C 11.4 °C 1017.2 hPa Calm   9.7 km/h 47 % 0.0 mm
11:57 23.7 °C 11.7 °C 1017.2 hPa SSW 8.0 km/h 9.7 km/h 47 % 0.0 mm
12:02 23.7 °C 11.1 °C 1017.2 hPa West 1.6 km/h 11.3 km/h 45 % 0.0 mm
12:12 24.0 °C 11.3 °C 1017.2 hPa WSW 6.4 km/h 11.3 km/h 45 % 0.0 mm
12:17 23.9 °C 10.2 °C 1017.2 hPa Calm   11.3 km/h 42 % 0.0 mm
12:22 24.2 °C 10.1 °C 1017.2 hPa WSW 9.7 km/h 11.3 km/h 41 % 0.0 mm
12:27 24.2 °C 9.7 °C 1016.8 hPa Calm   11.3 km/h 40 % 0.0 mm
12:32 24.6 °C 9.7 °C 1016.8 hPa WSW 8.0 km/h 11.3 km/h 39 % 0.0 mm
12:42 24.4 °C 9.5 °C 1016.8 hPa Calm   8.0 km/h 39 % 0.0 mm
12:47 24.7 °C 9.8 °C 1016.8 hPa SE 3.2 km/h 12.9 km/h 39 % 0.0 mm
12:52 24.9 °C 10.4 °C 1016.8 hPa WSW 3.2 km/h 12.9 km/h 40 % 0.0 mm
12:57 25.0 °C 10.1 °C 1016.5 hPa Calm   11.3 km/h 39 % 0.0 mm
13:02 25.1 °C 10.6 °C 1016.5 hPa SW 3.2 km/h 11.3 km/h 40 % 0.0 mm
13:07 25.3 °C 10.3 °C 1016.5 hPa SW 8.0 km/h 11.3 km/h 39 % 0.0 mm
13:12 25.2 °C 9.9 °C 1016.5 hPa West 6.4 km/h 11.3 km/h 38 % 0.0 mm
13:17 25.2 °C 10.3 °C 1016.5 hPa SSW 1.6 km/h 11.3 km/h 39 % 0.0 mm
13:22 25.5 °C 10.1 °C 1016.5 hPa West 11.3 km/h 11.3 km/h 38 % 0.0 mm
13:27 25.2 °C 9.9 °C 1016.5 hPa WSW 1.6 km/h 11.3 km/h 38 % 0.0 mm
13:32 25.5 °C 9.7 °C 1016.5 hPa NNE 6.4 km/h 12.9 km/h 37 % 0.0 mm
13:37 25.6 °C 9.8 °C 1016.5 hPa SSW 11.3 km/h 12.9 km/h 37 % 0.0 mm
13:42 25.6 °C 9.8 °C 1016.5 hPa SSW 6.4 km/h 19.3 km/h 37 % 0.0 mm
13:47 25.7 °C 9.9 °C 1016.1 hPa SW 9.7 km/h 19.3 km/h 37 % 0.0 mm
13:52 25.9 °C 10.1 °C 1016.1 hPa SSW 9.7 km/h 16.1 km/h 37 % 0.0 mm
13:57 25.7 °C 9.9 °C 1016.1 hPa SSW 4.8 km/h 16.1 km/h 37 % 0.0 mm
14:07 25.8 °C 10.0 °C 1016.1 hPa SW 3.2 km/h 19.3 km/h 37 % 0.0 mm
14:12 25.9 °C 10.1 °C 1016.1 hPa South 6.4 km/h 19.3 km/h 37 % 0.0 mm
14:17 25.9 °C 9.7 °C 1016.1 hPa WSW 8.0 km/h 17.7 km/h 36 % 0.0 mm
14:32 26.2 °C 10.4 °C 1016.1 hPa SW 3.2 km/h 22.5 km/h 37 % 0.0 mm
14:37 26.3 °C 10.4 °C 1015.8 hPa SSW 14.5 km/h 17.7 km/h 37 % 0.0 mm
14:47 25.9 °C 10.1 °C 1015.8 hPa SW 6.4 km/h 20.9 km/h 37 % 0.0 mm
14:52 26.1 °C 10.3 °C 1015.8 hPa West 14.5 km/h 20.9 km/h 37 % 0.0 mm
14:57 25.9 °C 10.5 °C 1015.8 hPa WSW 1.6 km/h 20.9 km/h 38 % 0.0 mm
15:02 26.0 °C 10.2 °C 1015.8 hPa SW 8.0 km/h 19.3 km/h 37 % 0.0 mm
15:07 26.2 °C 10.4 °C 1015.8 hPa WSW 4.8 km/h 19.3 km/h 37 % 0.0 mm
15:12 26.0 °C 10.6 °C 1015.8 hPa SSW 9.7 km/h 19.3 km/h 38 % 0.0 mm
15:17 26.0 °C 10.6 °C 1015.5 hPa SSW 11.3 km/h 19.3 km/h 38 % 0.0 mm
15:22 26.0 °C 10.6 °C 1015.5 hPa South 8.0 km/h 19.3 km/h 38 % 0.0 mm
15:27 26.1 °C 10.7 °C 1015.5 hPa SSW 6.4 km/h 19.3 km/h 38 % 0.0 mm
15:32 26.3 °C 10.8 °C 1015.5 hPa WSW 12.9 km/h 19.3 km/h 38 % 0.0 mm
15:37 26.3 °C 10.8 °C 1015.5 hPa West 8.0 km/h 19.3 km/h 38 % 0.0 mm
15:42 26.4 °C 10.9 °C 1015.5 hPa South 6.4 km/h 19.3 km/h 38 % 0.0 mm
15:47 26.3 °C 10.8 °C 1015.5 hPa SSW 6.4 km/h 17.7 km/h 38 % 0.0 mm
15:57 26.7 °C 10.8 °C 1015.5 hPa WNW 4.8 km/h 17.7 km/h 37 % 0.0 mm
16:02 26.8 °C 10.9 °C 1015.5 hPa WSW 6.4 km/h 17.7 km/h 37 % 0.0 mm
16:07 26.7 °C 10.8 °C 1015.1 hPa WSW 9.7 km/h 16.1 km/h 37 % 0.0 mm
16:12 26.5 °C 11.0 °C 1015.1 hPa SW 4.8 km/h 16.1 km/h 38 % 0.0 mm
16:17 26.7 °C 10.8 °C 1015.1 hPa WNW 8.0 km/h 16.1 km/h 37 % 0.0 mm
16:22 26.7 °C 10.8 °C 1015.1 hPa West 11.3 km/h 16.1 km/h 37 % 0.0 mm
16:32 26.6 °C 11.1 °C 1015.1 hPa SSW 6.4 km/h 17.7 km/h 38 % 0.0 mm
16:37 26.9 °C 11.0 °C 1015.1 hPa SW 16.1 km/h 17.7 km/h 37 % 0.0 mm
16:42 26.7 °C 11.2 °C 1015.1 hPa SW 11.3 km/h 20.9 km/h 38 % 0.0 mm
16:47 26.7 °C 10.8 °C 1015.1 hPa South 4.8 km/h 20.9 km/h 37 % 0.0 mm
16:52 26.8 °C 10.9 °C 1014.8 hPa WSW 4.8 km/h 20.9 km/h 37 % 0.0 mm
16:57 26.9 °C 11.0 °C 1015.1 hPa WSW 6.4 km/h 20.9 km/h 37 % 0.0 mm
17:02 26.8 °C 10.9 °C 1015.1 hPa WSW 9.7 km/h 20.9 km/h 37 % 0.0 mm
17:07 27.0 °C 11.1 °C 1014.8 hPa West 6.4 km/h 20.9 km/h 37 % 0.0 mm
17:12 27.0 °C 11.5 °C 1014.8 hPa SSW 6.4 km/h 12.9 km/h 38 % 0.0 mm
17:17 27.2 °C 11.2 °C 1014.8 hPa West 4.8 km/h 14.5 km/h 37 % 0.0 mm
17:22 27.1 °C 10.7 °C 1014.8 hPa WSW 9.7 km/h 14.5 km/h 36 % 0.0 mm
17:27 26.9 °C 10.6 °C 1014.8 hPa WSW 11.3 km/h 19.3 km/h 36 % 0.0 mm
17:32 26.8 °C 10.9 °C 1014.8 hPa SW 9.7 km/h 20.9 km/h 37 % 0.0 mm
17:37 26.8 °C 10.9 °C 1014.8 hPa SW 9.7 km/h 20.9 km/h 37 % 0.0 mm
17:42 26.9 °C 11.4 °C 1014.8 hPa SW 11.3 km/h 20.9 km/h 38 % 0.0 mm
17:47 27.1 °C 11.2 °C 1014.8 hPa WNW 4.8 km/h 16.1 km/h 37 % 0.0 mm
17:52 27.1 °C 11.2 °C 1014.8 hPa West 8.0 km/h 16.1 km/h 37 % 0.0 mm
18:02 27.0 °C 11.1 °C 1014.8 hPa West 3.2 km/h 16.1 km/h 37 % 0.0 mm
18:07 27.1 °C 10.7 °C 1014.8 hPa West 9.7 km/h 16.1 km/h 36 % 0.0 mm
18:12 26.9 °C 11.0 °C 1014.8 hPa WNW 3.2 km/h 17.7 km/h 37 % 0.0 mm
18:17 27.1 °C 10.7 °C 1014.8 hPa SSW 4.8 km/h 17.7 km/h 36 % 0.0 mm
18:27 26.6 °C 10.7 °C 1014.8 hPa WSW 12.9 km/h 19.3 km/h 37 % 0.0 mm
18:32 26.5 °C 10.6 °C 1014.8 hPa West 8.0 km/h 19.3 km/h 37 % 0.0 mm
18:42 26.4 °C 10.9 °C 1014.8 hPa SW 3.2 km/h 14.5 km/h 38 % 0.0 mm
18:52 26.2 °C 11.2 °C 1014.8 hPa SSW 4.8 km/h 12.9 km/h 39 % 0.0 mm
18:57 26.2 °C 11.2 °C 1014.8 hPa West 8.0 km/h 14.5 km/h 39 % 0.0 mm
19:02 26.2 °C 11.2 °C 1015.1 hPa West 3.2 km/h 14.5 km/h 39 % 0.0 mm
19:07 26.1 °C 11.4 °C 1015.1 hPa WNW 6.4 km/h 14.5 km/h 40 % 0.0 mm
19:12 26.0 °C 11.4 °C 1015.1 hPa NW 4.8 km/h 14.5 km/h 40 % 0.0 mm
19:17 25.7 °C 11.5 °C 1015.1 hPa West 6.4 km/h 14.5 km/h 41 % 0.0 mm
19:22 25.4 °C 11.2 °C 1015.1 hPa WNW 8.0 km/h 16.1 km/h 41 % 0.0 mm
19:27 25.2 °C 11.4 °C 1015.1 hPa WNW 4.8 km/h 16.1 km/h 42 % 0.0 mm
19:32 25.0 °C 11.6 °C 1015.1 hPa WNW 8.0 km/h 12.9 km/h 43 % 0.0 mm
19:37 24.8 °C 11.4 °C 1015.1 hPa West 4.8 km/h 12.9 km/h 43 % 0.0 mm
19:42 24.6 °C 11.5 °C 1015.1 hPa WNW 1.6 km/h 11.3 km/h 44 % 0.0 mm
19:47 24.3 °C 11.6 °C 1015.1 hPa NW 3.2 km/h 11.3 km/h 45 % 0.0 mm
19:52 24.1 °C 11.8 °C 1015.5 hPa WNW 1.6 km/h 8.0 km/h 46 % 0.0 mm
19:57 23.8 °C 11.5 °C 1015.5 hPa WNW 6.4 km/h 8.0 km/h 46 % 0.0 mm
20:02 23.7 °C 11.7 °C 1015.5 hPa WNW 1.6 km/h 8.0 km/h 47 % 0.0 mm
20:07 23.5 °C 11.9 °C 1015.5 hPa WNW 4.8 km/h 8.0 km/h 48 % 0.0 mm
20:12 23.3 °C 11.7 °C 1015.5 hPa WNW 4.8 km/h 6.4 km/h 48 % 0.0 mm
20:17 23.1 °C 11.8 °C 1015.5 hPa NW 4.8 km/h 8.0 km/h 49 % 0.0 mm
20:22 22.8 °C 11.2 °C 1015.5 hPa WNW 8.0 km/h 16.1 km/h 48 % 0.0 mm
20:27 22.6 °C 11.3 °C 1015.5 hPa WNW 1.6 km/h 16.1 km/h 49 % 0.0 mm
20:32 22.4 °C 11.2 °C 1015.8 hPa NW 9.7 km/h 16.1 km/h 49 % 0.0 mm
20:37 22.2 °C 11.0 °C 1015.8 hPa WNW 3.2 km/h 16.1 km/h 49 % 0.0 mm
20:42 22.0 °C 10.8 °C 1015.8 hPa NW 6.4 km/h 12.9 km/h 49 % 0.0 mm
20:47 21.9 °C 10.7 °C 1015.8 hPa WNW 1.6 km/h 12.9 km/h 49 % 0.0 mm
20:52 21.7 °C 10.8 °C 1015.8 hPa NW 1.6 km/h 11.3 km/h 50 % 0.0 mm
20:57 21.6 °C 10.7 °C 1015.8 hPa West 3.2 km/h 11.3 km/h 50 % 0.0 mm
21:07 21.3 °C 10.8 °C 1016.1 hPa WNW 1.6 km/h 6.4 km/h 51 % 0.0 mm
21:12 21.1 °C 10.6 °C 1016.1 hPa NW 3.2 km/h 6.4 km/h 51 % 0.0 mm
21:22 20.7 °C 10.5 °C 1016.1 hPa Calm   6.4 km/h 52 % 0.0 mm
21:27 20.6 °C 10.4 °C 1016.1 hPa WNW 3.2 km/h 6.4 km/h 52 % 0.0 mm
21:32 20.4 °C 10.5 °C 1016.1 hPa WNW 3.2 km/h 4.8 km/h 53 % 0.0 mm
21:37 20.3 °C 10.4 °C 1016.1 hPa WNW 3.2 km/h 4.8 km/h 53 % 0.0 mm
21:42 20.1 °C 10.2 °C 1016.1 hPa WNW 3.2 km/h 4.8 km/h 53 % 0.0 mm
21:47 19.9 °C 10.0 °C 1016.1 hPa WNW 3.2 km/h 4.8 km/h 53 % 0.0 mm
21:52 19.7 °C 10.1 °C 1016.5 hPa West 1.6 km/h 4.8 km/h 54 % 0.0 mm
21:57 19.5 °C 9.9 °C 1016.5 hPa WNW 1.6 km/h 4.8 km/h 54 % 0.0 mm
22:02 19.2 °C 9.9 °C 1016.5 hPa Calm   4.8 km/h 55 % 0.0 mm
22:07 19.1 °C 9.8 °C 1016.5 hPa Calm   4.8 km/h 55 % 0.0 mm
22:12 19.0 °C 10.0 °C 1016.5 hPa Calm   3.2 km/h 56 % 0.0 mm
22:17 18.9 °C 10.2 °C 1016.5 hPa Calm   3.2 km/h 57 % 0.0 mm
22:22 18.7 °C 10.0 °C 1016.5 hPa Calm   1.6 km/h 57 % 0.0 mm
22:27 18.6 °C 10.2 °C 1016.5 hPa Calm   1.6 km/h 58 % 0.0 mm
22:32 18.3 °C 9.9 °C 1016.5 hPa Calm     58 % 0.0 mm
22:37 18.2 °C 10.3 °C 1016.5 hPa Calm     60 % 0.0 mm
22:42 18.1 °C 10.2 °C 1016.5 hPa Calm     60 % 0.0 mm
22:47 18.0 °C 10.1 °C 1016.8 hPa Calm     60 % 0.0 mm
22:52 18.0 °C 10.6 °C 1016.8 hPa Calm     62 % 0.0 mm
22:57 18.1 °C 10.5 °C 1016.8 hPa Calm     61 % 0.0 mm
23:02 18.2 °C 10.6 °C 1016.8 hPa Calm     61 % 0.0 mm
23:07 18.3 °C 10.4 °C 1016.8 hPa Calm     60 % 0.0 mm
23:12 18.2 °C 10.3 °C 1016.8 hPa Calm     60 % 0.0 mm
23:17 18.1 °C 10.5 °C 1016.8 hPa Calm     61 % 0.0 mm
23:22 17.9 °C 10.3 °C 1017.2 hPa Calm     61 % 0.0 mm
23:27 17.9 °C 10.3 °C 1017.2 hPa Calm     61 % 0.0 mm
23:32 17.9 °C 10.3 °C 1017.2 hPa Calm     61 % 0.0 mm
23:37 17.8 °C 10.2 °C 1017.2 hPa Calm     61 % 0.0 mm
23:42 17.9 °C 10.3 °C 1017.2 hPa Calm     61 % 0.0 mm
23:47 18.1 °C 10.5 °C 1017.2 hPa Calm     61 % 0.0 mm
23:52 17.9 °C 10.3 °C 1017.2 hPa Calm     61 % 0.0 mm
23:57 17.8 °C 10.4 °C 1017.2 hPa Calm     62 % 0.0 mm
Meteo18
Compliments of Weather Underground - 4 mb

Script developed by  Jim McMurry - jmcmurry@mwt.net Adapted for the template by  Wim van der Kuil - Leuven-Template.eu

You find our weather info also at:

European Weather Network

Weather Underground

Equipment we use:

Weather-station
Davis Vue

Weather-program
Meteohub

Weather-server
Raspberry PI 2 B+

Provider
1 and 1

Davis Vue

Meteohub

Raspberry PI 2 B+

1 and 1